sensor_id;sensor_type;location;lat;lon;timestamp;pressure;altitude;pressure_sealevel;temperature;humidity
36538;BME280;22545;48.892;9.138;2022-08-11T00:01:07;98498.72;;;20.55;56.15
36538;BME280;22545;48.892;9.138;2022-08-11T00:03:33;98501.75;;;20.48;56.68
36538;BME280;22545;48.892;9.138;2022-08-11T00:05:59;98504.81;;;20.42;56.66
36538;BME280;22545;48.892;9.138;2022-08-11T00:08:26;98498.00;;;20.40;56.57
36538;BME280;22545;48.892;9.138;2022-08-11T00:10:52;98488.09;;;20.32;56.93
36538;BME280;22545;48.892;9.138;2022-08-11T00:13:19;98495.94;;;20.32;57.16
36538;BME280;22545;48.892;9.138;2022-08-11T00:15:44;98488.84;;;20.34;56.74
36538;BME280;22545;48.892;9.138;2022-08-11T00:18:11;98491.47;;;20.34;56.97
36538;BME280;22545;48.892;9.138;2022-08-11T00:20:38;98496.81;;;20.32;57.53
36538;BME280;22545;48.892;9.138;2022-08-11T00:23:08;98497.72;;;20.31;57.77
36538;BME280;22545;48.892;9.138;2022-08-11T00:25:43;98500.78;;;20.25;57.95
36538;BME280;22545;48.892;9.138;2022-08-11T00:28:28;98493.06;;;20.24;58.90
36538;BME280;22545;48.892;9.138;2022-08-11T00:30:55;98497.94;;;20.28;58.91
36538;BME280;22545;48.892;9.138;2022-08-11T00:33:22;98492.31;;;20.22;59.52
36538;BME280;22545;48.892;9.138;2022-08-11T00:35:48;98498.72;;;20.18;60.32
36538;BME280;22545;48.892;9.138;2022-08-11T00:38:15;98504.66;;;20.20;60.80
36538;BME280;22545;48.892;9.138;2022-08-11T00:40:41;98502.03;;;20.20;60.49
36538;BME280;22545;48.892;9.138;2022-08-11T00:45:45;98505.47;;;20.20;59.51
36538;BME280;22545;48.892;9.138;2022-08-11T00:50:50;98505.91;;;20.14;60.89
36538;BME280;22545;48.892;9.138;2022-08-11T01:01:00;98494.84;;;19.97;62.96
36538;BME280;22545;48.892;9.138;2022-08-11T01:14:23;98493.56;;;19.64;67.17
36538;BME280;22545;48.892;9.138;2022-08-11T01:27:21;98497.31;;;19.35;72.33
36538;BME280;22545;48.892;9.138;2022-08-11T01:30:02;98495.84;;;19.31;72.61
36538;BME280;22545;48.892;9.138;2022-08-11T01:40:39;98491.75;;;19.26;74.21
36538;BME280;22545;48.892;9.138;2022-08-11T01:49:09;98486.56;;;19.39;70.88
36538;BME280;22545;48.892;9.138;2022-08-11T01:51:45;98483.84;;;19.41;70.64
36538;BME280;22545;48.892;9.138;2022-08-11T01:57:09;98480.09;;;19.45;70.15
36538;BME280;22545;48.892;9.138;2022-08-11T01:59:55;98485.41;;;19.31;71.42
36538;BME280;22545;48.892;9.138;2022-08-11T02:07:37;98492.19;;;19.33;70.11
36538;BME280;22545;48.892;9.138;2022-08-11T02:13:19;98443.50;;;18.93;72.05
36538;BME280;22545;48.892;9.138;2022-08-11T02:15:49;98488.22;;;19.27;72.12
36538;BME280;22545;48.892;9.138;2022-08-11T02:18:35;98486.53;;;19.26;72.45
36538;BME280;22545;48.892;9.138;2022-08-11T02:21:29;98480.38;;;19.27;73.34
36538;BME280;22545;48.892;9.138;2022-08-11T02:24:22;98473.19;;;19.31;73.19
36538;BME280;22545;48.892;9.138;2022-08-11T02:27:01;98479.22;;;19.19;77.52
36538;BME280;22545;48.892;9.138;2022-08-11T02:29:34;98484.38;;;18.93;80.17
36538;BME280;22545;48.892;9.138;2022-08-11T02:40:01;98480.66;;;18.83;86.68
36538;BME280;22545;48.892;9.138;2022-08-11T02:42:37;98477.91;;;18.71;83.61
36538;BME280;22545;48.892;9.138;2022-08-11T02:45:16;98468.69;;;18.66;84.11
36538;BME280;22545;48.892;9.138;2022-08-11T02:51:03;98471.59;;;18.61;89.11
36538;BME280;22545;48.892;9.138;2022-08-11T02:53:43;98472.72;;;18.57;88.08
36538;BME280;22545;48.892;9.138;2022-08-11T03:01:48;98474.13;;;18.63;82.39
36538;BME280;22545;48.892;9.138;2022-08-11T03:04:29;98481.41;;;18.43;84.47
36538;BME280;22545;48.892;9.138;2022-08-11T03:07:00;98473.50;;;18.45;84.52
36538;BME280;22545;48.892;9.138;2022-08-11T03:12:05;98477.06;;;18.29;90.30
36538;BME280;22545;48.892;9.138;2022-08-11T03:15:02;98480.22;;;18.20;93.53
36538;BME280;22545;48.892;9.138;2022-08-11T03:20:35;98479.94;;;18.39;86.21
36538;BME280;22545;48.892;9.138;2022-08-11T03:25:55;98484.31;;;18.24;92.89
36538;BME280;22545;48.892;9.138;2022-08-11T03:28:25;98480.78;;;18.11;95.19
36538;BME280;22545;48.892;9.138;2022-08-11T03:30:55;98486.22;;;17.93;96.12
36538;BME280;22545;48.892;9.138;2022-08-11T03:33:30;98475.50;;;17.98;97.80
36538;BME280;22545;48.892;9.138;2022-08-11T03:36:27;98494.75;;;17.95;98.67
36538;BME280;22545;48.892;9.138;2022-08-11T03:47:01;98501.84;;;17.32;100.00
36538;BME280;22545;48.892;9.138;2022-08-11T03:49:55;98492.69;;;17.41;100.00
36538;BME280;22545;48.892;9.138;2022-08-11T03:52:25;98499.53;;;17.73;95.22
36538;BME280;22545;48.892;9.138;2022-08-11T04:13:15;98492.06;;;17.52;100.00
36538;BME280;22545;48.892;9.138;2022-08-11T04:20:58;98502.31;;;17.69;100.00
36538;BME280;22545;48.892;9.138;2022-08-11T04:25:58;98488.72;;;17.50;100.00
36538;BME280;22545;48.892;9.138;2022-08-11T04:36:26;98495.56;;;17.37;100.00
36538;BME280;22545;48.892;9.138;2022-08-11T04:42:05;98505.00;;;17.23;100.00
36538;BME280;22545;48.892;9.138;2022-08-11T05:10:30;98514.50;;;17.39;100.00
36538;BME280;22545;48.892;9.138;2022-08-11T05:13:05;98511.66;;;17.43;100.00
36538;BME280;22545;48.892;9.138;2022-08-11T05:16:00;98515.91;;;17.44;100.00
36538;BME280;22545;48.892;9.138;2022-08-11T05:18:48;98516.22;;;17.54;100.00
36538;BME280;22545;48.892;9.138;2022-08-11T05:21:33;98437.94;;;17.14;100.00
36538;BME280;22545;48.892;9.138;2022-08-11T05:25:05;98513.00;;;17.79;100.00
36538;BME280;22545;48.892;9.138;2022-08-11T05:27:22;98511.16;;;17.81;100.00
36538;BME280;22545;48.892;9.138;2022-08-11T05:30:11;98508.84;;;17.91;100.00
36538;BME280;22545;48.892;9.138;2022-08-11T05:33:02;98509.34;;;17.98;100.00
36538;BME280;22545;48.892;9.138;2022-08-11T05:35:46;98515.09;;;18.03;100.00
36538;BME280;22545;48.892;9.138;2022-08-11T05:38:26;98509.25;;;18.28;100.00
36538;BME280;22545;48.892;9.138;2022-08-11T05:41:11;98514.91;;;18.20;100.00
36538;BME280;22545;48.892;9.138;2022-08-11T05:43:59;98513.97;;;18.36;100.00
36538;BME280;22545;48.892;9.138;2022-08-11T05:46:43;98517.22;;;18.39;100.00
36538;BME280;22545;48.892;9.138;2022-08-11T05:49:29;98518.09;;;18.67;100.00
36538;BME280;22545;48.892;9.138;2022-08-11T05:52:14;98512.22;;;18.78;100.00
36538;BME280;22545;48.892;9.138;2022-08-11T05:55:00;98518.44;;;18.90;100.00
36538;BME280;22545;48.892;9.138;2022-08-11T05:57:44;98512.31;;;18.91;100.00
36538;BME280;22545;48.892;9.138;2022-08-11T06:00:10;98526.88;;;18.93;99.34
36538;BME280;22545;48.892;9.138;2022-08-11T06:02:42;98522.16;;;19.13;97.53
36538;BME280;22545;48.892;9.138;2022-08-11T06:05:08;98518.66;;;19.00;95.24
36538;BME280;22545;48.892;9.138;2022-08-11T06:07:34;98514.38;;;19.26;93.30
36538;BME280;22545;48.892;9.138;2022-08-11T06:10:00;98521.66;;;19.21;90.14
36538;BME280;22545;48.892;9.138;2022-08-11T06:12:27;98512.56;;;19.54;93.13
36538;BME280;22545;48.892;9.138;2022-08-11T06:14:56;98513.75;;;20.01;84.73
36538;BME280;22545;48.892;9.138;2022-08-11T06:17:23;98519.81;;;20.64;79.68
36538;BME280;22545;48.892;9.138;2022-08-11T06:19:49;98517.72;;;22.23;65.81
36538;BME280;22545;48.892;9.138;2022-08-11T06:22:18;98513.19;;;22.70;59.69
36538;BME280;22545;48.892;9.138;2022-08-11T06:24:50;98511.09;;;23.71;51.51
36538;BME280;22545;48.892;9.138;2022-08-11T06:27:19;98515.59;;;24.52;47.80
36538;BME280;22545;48.892;9.138;2022-08-11T06:29:46;98514.03;;;25.49;45.57
36538;BME280;22545;48.892;9.138;2022-08-11T06:32:13;98511.50;;;25.76;43.35
36538;BME280;22545;48.892;9.138;2022-08-11T06:34:47;98514.53;;;25.82;44.02
36538;BME280;22545;48.892;9.138;2022-08-11T06:40:06;98527.78;;;26.93;38.97
36538;BME280;22545;48.892;9.138;2022-08-11T06:42:37;98514.44;;;27.75;37.88
36538;BME280;22545;48.892;9.138;2022-08-11T06:45:13;98514.78;;;28.40;36.53
36538;BME280;22545;48.892;9.138;2022-08-11T06:47:43;98513.69;;;28.08;37.23
36538;BME280;22545;48.892;9.138;2022-08-11T06:50:10;98509.31;;;28.76;36.19
36538;BME280;22545;48.892;9.138;2022-08-11T06:52:58;98508.53;;;30.31;33.35
36538;BME280;22545;48.892;9.138;2022-08-11T06:55:23;98510.00;;;29.11;34.44
36538;BME280;22545;48.892;9.138;2022-08-11T06:58:12;98512.25;;;27.70;36.51
36538;BME280;22545;48.892;9.138;2022-08-11T07:01:06;98512.75;;;28.69;35.36
36538;BME280;22545;48.892;9.138;2022-08-11T07:03:35;98512.00;;;29.18;34.07
36538;BME280;22545;48.892;9.138;2022-08-11T07:06:07;98511.16;;;29.01;34.45
36538;BME280;22545;48.892;9.138;2022-08-11T07:14:28;98507.69;;;29.00;35.11
36538;BME280;22545;48.892;9.138;2022-08-11T07:17:13;98518.16;;;28.16;36.22
36538;BME280;22545;48.892;9.138;2022-08-11T07:19:39;98507.28;;;27.05;37.92
36538;BME280;22545;48.892;9.138;2022-08-11T07:22:26;98505.84;;;26.19;40.27
36538;BME280;22545;48.892;9.138;2022-08-11T07:25:14;98508.91;;;26.42;39.79
36538;BME280;22545;48.892;9.138;2022-08-11T07:28:03;98504.44;;;27.60;37.75
36538;BME280;22545;48.892;9.138;2022-08-11T07:30:48;98501.09;;;28.45;36.57
36538;BME280;22545;48.892;9.138;2022-08-11T07:33:18;98503.50;;;27.25;38.51
36538;BME280;22545;48.892;9.138;2022-08-11T07:35:50;98499.38;;;26.03;40.29
36538;BME280;22545;48.892;9.138;2022-08-11T07:38:27;98506.53;;;26.48;40.17
36538;BME280;22545;48.892;9.138;2022-08-11T07:41:11;98505.19;;;29.07;36.31
36538;BME280;22545;48.892;9.138;2022-08-11T07:43:37;98507.38;;;29.44;34.65
36538;BME280;22545;48.892;9.138;2022-08-11T07:46:03;98502.91;;;28.45;36.04
36538;BME280;22545;48.892;9.138;2022-08-11T07:48:48;98500.44;;;28.00;37.28
36538;BME280;22545;48.892;9.138;2022-08-11T07:51:32;98497.94;;;28.41;37.06
36538;BME280;22545;48.892;9.138;2022-08-11T07:54:16;98498.56;;;28.94;35.99
36538;BME280;22545;48.892;9.138;2022-08-11T07:56:41;98487.50;;;28.99;34.91
36538;BME280;22545;48.892;9.138;2022-08-11T07:59:07;98488.16;;;28.85;35.40
36538;BME280;22545;48.892;9.138;2022-08-11T08:01:52;98493.41;;;28.25;36.69
36538;BME280;22545;48.892;9.138;2022-08-11T08:04:36;98487.34;;;29.09;34.74
36538;BME280;22545;48.892;9.138;2022-08-11T08:07:20;98483.75;;;27.82;36.27
36538;BME280;22545;48.892;9.138;2022-08-11T08:10:07;98484.28;;;27.15;37.12
36538;BME280;22545;48.892;9.138;2022-08-11T08:12:55;98486.75;;;28.13;36.42
36538;BME280;22545;48.892;9.138;2022-08-11T08:15:40;98484.44;;;27.13;38.58
36538;BME280;22545;48.892;9.138;2022-08-11T08:18:24;98460.22;;;30.44;33.59
36538;BME280;22545;48.892;9.138;2022-08-11T08:20:50;98478.06;;;29.13;34.42
36538;BME280;22545;48.892;9.138;2022-08-11T08:23:19;98488.97;;;28.93;34.50
36538;BME280;22545;48.892;9.138;2022-08-11T08:25:57;98486.88;;;27.51;36.61
36538;BME280;22545;48.892;9.138;2022-08-11T08:28:25;98482.72;;;26.58;38.94
36538;BME280;22545;48.892;9.138;2022-08-11T08:30:51;98487.44;;;27.18;38.35
36538;BME280;22545;48.892;9.138;2022-08-11T08:33:20;98480.50;;;28.22;36.19
36538;BME280;22545;48.892;9.138;2022-08-11T08:35:56;98488.34;;;29.00;35.65
36538;BME280;22545;48.892;9.138;2022-08-11T08:38:45;98488.34;;;29.57;34.25
36538;BME280;22545;48.892;9.138;2022-08-11T08:41:11;98501.25;;;29.36;34.51
36538;BME280;22545;48.892;9.138;2022-08-11T08:43:37;98493.31;;;29.44;34.35
36538;BME280;22545;48.892;9.138;2022-08-11T08:46:03;98497.53;;;28.20;35.97
36538;BME280;22545;48.892;9.138;2022-08-11T08:48:31;98490.28;;;28.30;35.42
36538;BME280;22545;48.892;9.138;2022-08-11T08:51:00;98493.63;;;27.45;35.65
36538;BME280;22545;48.892;9.138;2022-08-11T08:53:51;98488.16;;;28.34;34.97
36538;BME280;22545;48.892;9.138;2022-08-11T08:56:17;98490.28;;;28.30;34.67
36538;BME280;22545;48.892;9.138;2022-08-11T08:58:45;98492.00;;;28.56;34.23
36538;BME280;22545;48.892;9.138;2022-08-11T09:01:12;98479.34;;;28.68;34.04
36538;BME280;22545;48.892;9.138;2022-08-11T09:03:39;98474.41;;;28.98;32.98
36538;BME280;22545;48.892;9.138;2022-08-11T09:06:04;98486.88;;;29.22;32.63
36538;BME280;22545;48.892;9.138;2022-08-11T09:08:31;98483.47;;;28.11;32.80
36538;BME280;22545;48.892;9.138;2022-08-11T09:10:56;98474.50;;;27.78;33.96
36538;BME280;22545;48.892;9.138;2022-08-11T09:13:41;98496.53;;;28.21;34.38
36538;BME280;22545;48.892;9.138;2022-08-11T09:16:08;98483.88;;;29.41;32.57
36538;BME280;22545;48.892;9.138;2022-08-11T09:18:34;98480.44;;;28.06;33.87
36538;BME280;22545;48.892;9.138;2022-08-11T09:21:01;98479.06;;;28.95;32.89
36538;BME280;22545;48.892;9.138;2022-08-11T09:23:27;98474.81;;;30.48;30.37
36538;BME280;22545;48.892;9.138;2022-08-11T09:26:11;98485.31;;;28.78;32.72
36538;BME280;22545;48.892;9.138;2022-08-11T09:28:55;98483.72;;;29.43;31.76
36538;BME280;22545;48.892;9.138;2022-08-11T09:31:21;98467.28;;;29.72;31.70
36538;BME280;22545;48.892;9.138;2022-08-11T09:33:46;98485.97;;;29.79;31.38
36538;BME280;22545;48.892;9.138;2022-08-11T09:36:15;98481.88;;;29.60;31.13
36538;BME280;22545;48.892;9.138;2022-08-11T09:39:00;98475.03;;;29.82;31.07
36538;BME280;22545;48.892;9.138;2022-08-11T09:41:45;98475.25;;;30.20;29.69
36538;BME280;22545;48.892;9.138;2022-08-11T09:44:11;98470.59;;;29.58;30.19
36538;BME280;22545;48.892;9.138;2022-08-11T09:46:55;98480.22;;;31.09;28.91
36538;BME280;22545;48.892;9.138;2022-08-11T09:49:24;98470.59;;;31.08;29.09
36538;BME280;22545;48.892;9.138;2022-08-11T09:51:51;98479.59;;;30.13;29.92
36538;BME280;22545;48.892;9.138;2022-08-11T09:54:17;98479.59;;;29.32;29.89
36538;BME280;22545;48.892;9.138;2022-08-11T09:56:43;98477.81;;;28.57;30.77
36538;BME280;22545;48.892;9.138;2022-08-11T09:59:37;98473.31;;;28.41;31.17
36538;BME280;22545;48.892;9.138;2022-08-11T10:02:04;98465.19;;;28.34;31.25
36538;BME280;22545;48.892;9.138;2022-08-11T10:07:02;98459.88;;;29.35;30.32
36538;BME280;22545;48.892;9.138;2022-08-11T10:09:41;98463.19;;;28.95;30.56
36538;BME280;22545;48.892;9.138;2022-08-11T10:12:26;98462.50;;;29.43;29.63
36538;BME280;22545;48.892;9.138;2022-08-11T10:14:55;98471.00;;;28.54;30.77
36538;BME280;22545;48.892;9.138;2022-08-11T10:17:42;98463.88;;;28.47;30.79
36538;BME280;22545;48.892;9.138;2022-08-11T10:20:31;98455.56;;;29.50;30.55
36538;BME280;22545;48.892;9.138;2022-08-11T10:22:58;98448.28;;;29.44;29.24
36538;BME280;22545;48.892;9.138;2022-08-11T10:25:42;98457.75;;;29.94;29.87
36538;BME280;22545;48.892;9.138;2022-08-11T10:28:25;98467.06;;;28.50;30.54
36538;BME280;22545;48.892;9.138;2022-08-11T10:30:51;98459.84;;;28.93;30.50
36538;BME280;22545;48.892;9.138;2022-08-11T10:33:35;98456.72;;;28.82;30.67
36538;BME280;22545;48.892;9.138;2022-08-11T10:36:19;98449.34;;;28.00;31.19
36538;BME280;22545;48.892;9.138;2022-08-11T10:38:45;98444.81;;;27.84;31.89
36538;BME280;22545;48.892;9.138;2022-08-11T10:41:14;98444.81;;;27.84;32.12
36538;BME280;22545;48.892;9.138;2022-08-11T10:43:58;98439.88;;;28.32;30.79
36538;BME280;22545;48.892;9.138;2022-08-11T10:46:24;98434.81;;;27.69;31.76
36538;BME280;22545;48.892;9.138;2022-08-11T10:49:08;98438.25;;;28.31;31.17
36538;BME280;22545;48.892;9.138;2022-08-11T10:51:34;98424.72;;;28.58;30.97
36538;BME280;22545;48.892;9.138;2022-08-11T10:54:19;98428.50;;;28.48;30.72
36538;BME280;22545;48.892;9.138;2022-08-11T10:57:03;98423.13;;;28.99;30.20
36538;BME280;22545;48.892;9.138;2022-08-11T10:59:47;98423.63;;;28.77;30.21
36538;BME280;22545;48.892;9.138;2022-08-11T11:02:13;98416.28;;;28.55;30.86
36538;BME280;22545;48.892;9.138;2022-08-11T11:05:25;98422.41;;;27.70;31.57
36538;BME280;22545;48.892;9.138;2022-08-11T11:07:38;98422.03;;;27.57;31.41
36538;BME280;22545;48.892;9.138;2022-08-11T11:10:04;98415.91;;;27.56;31.82
36538;BME280;22545;48.892;9.138;2022-08-11T11:12:32;98410.31;;;27.94;31.45
36538;BME280;22545;48.892;9.138;2022-08-11T11:15:17;98423.66;;;27.31;31.51
36538;BME280;22545;48.892;9.138;2022-08-11T11:18:06;98401.19;;;27.01;31.76
36538;BME280;22545;48.892;9.138;2022-08-11T11:23:06;98408.22;;;27.63;31.40
36538;BME280;22545;48.892;9.138;2022-08-11T11:28:13;98395.06;;;27.79;31.09
36538;BME280;22545;48.892;9.138;2022-08-11T11:30:54;98398.94;;;27.59;31.21
36538;BME280;22545;48.892;9.138;2022-08-11T11:33:25;98387.97;;;27.45;30.59
36538;BME280;22545;48.892;9.138;2022-08-11T11:36:06;98388.69;;;26.67;31.43
36538;BME280;22545;48.892;9.138;2022-08-11T11:38:36;98378.94;;;26.85;31.24
36538;BME280;22545;48.892;9.138;2022-08-11T11:41:01;98369.91;;;27.14;30.93
36538;BME280;22545;48.892;9.138;2022-08-11T11:43:45;98374.59;;;27.20;31.41
36538;BME280;22545;48.892;9.138;2022-08-11T11:46:11;98365.03;;;27.28;31.25
36538;BME280;22545;48.892;9.138;2022-08-11T11:48:37;98368.97;;;27.42;31.60
36538;BME280;22545;48.892;9.138;2022-08-11T11:51:04;98375.56;;;27.46;31.35
36538;BME280;22545;48.892;9.138;2022-08-11T11:53:29;98364.63;;;27.14;30.63
36538;BME280;22545;48.892;9.138;2022-08-11T11:55:55;98363.34;;;26.92;31.34
36538;BME280;22545;48.892;9.138;2022-08-11T11:58:21;98358.09;;;26.74;31.20
36538;BME280;22545;48.892;9.138;2022-08-11T12:01:06;98365.75;;;26.85;30.91
36538;BME280;22545;48.892;9.138;2022-08-11T12:03:41;98356.69;;;27.14;31.10
36538;BME280;22545;48.892;9.138;2022-08-11T12:06:07;98368.69;;;27.27;31.37
36538;BME280;22545;48.892;9.138;2022-08-11T12:08:33;98370.59;;;27.43;30.63
36538;BME280;22545;48.892;9.138;2022-08-11T12:11:02;98366.28;;;27.15;31.09
36538;BME280;22545;48.892;9.138;2022-08-11T12:13:47;98362.91;;;27.05;31.03
36538;BME280;22545;48.892;9.138;2022-08-11T12:16:14;98355.53;;;27.09;31.13
36538;BME280;22545;48.892;9.138;2022-08-11T12:18:41;98358.09;;;27.00;31.29
36538;BME280;22545;48.892;9.138;2022-08-11T12:21:07;98354.38;;;27.11;31.77
36538;BME280;22545;48.892;9.138;2022-08-11T12:23:36;98349.00;;;27.21;31.04
36538;BME280;22545;48.892;9.138;2022-08-11T12:26:20;98348.69;;;27.24;31.63
36538;BME280;22545;48.892;9.138;2022-08-11T12:29:05;98350.44;;;27.15;30.98
36538;BME280;22545;48.892;9.138;2022-08-11T12:31:31;98353.41;;;27.12;31.17
36538;BME280;22545;48.892;9.138;2022-08-11T12:34:04;98339.94;;;27.24;31.38
36538;BME280;22545;48.892;9.138;2022-08-11T12:36:31;98336.78;;;27.20;31.53
36538;BME280;22545;48.892;9.138;2022-08-11T12:38:57;98339.31;;;27.30;30.88
36538;BME280;22545;48.892;9.138;2022-08-11T12:41:23;98335.69;;;27.65;30.19
36538;BME280;22545;48.892;9.138;2022-08-11T12:44:08;98336.28;;;27.85;29.69
36538;BME280;22545;48.892;9.138;2022-08-11T12:46:53;98332.56;;;27.62;29.43
36538;BME280;22545;48.892;9.138;2022-08-11T12:49:21;98335.31;;;27.52;29.02
36538;BME280;22545;48.892;9.138;2022-08-11T12:52:09;98327.28;;;27.62;29.02
36538;BME280;22545;48.892;9.138;2022-08-11T12:54:47;98330.91;;;27.61;28.76
36538;BME280;22545;48.892;9.138;2022-08-11T12:59:59;98305.97;;;27.29;29.80
36538;BME280;22545;48.892;9.138;2022-08-11T13:02:43;98313.69;;;27.48;29.37
36538;BME280;22545;48.892;9.138;2022-08-11T13:05:29;98317.28;;;27.39;29.38
36538;BME280;22545;48.892;9.138;2022-08-11T13:07:57;98301.44;;;27.47;29.64
36538;BME280;22545;48.892;9.138;2022-08-11T13:10:24;98283.81;;;27.56;29.60
36538;BME280;22545;48.892;9.138;2022-08-11T13:13:08;98297.59;;;27.76;29.16
36538;BME280;22545;48.892;9.138;2022-08-11T13:15:33;98292.78;;;27.63;28.85
36538;BME280;22545;48.892;9.138;2022-08-11T13:18:02;98284.78;;;27.47;28.88
36538;BME280;22545;48.892;9.138;2022-08-11T13:20:28;98287.81;;;27.68;28.73
36538;BME280;22545;48.892;9.138;2022-08-11T13:22:54;98289.16;;;27.64;28.81
36538;BME280;22545;48.892;9.138;2022-08-11T13:25:22;98283.22;;;27.79;28.48
36538;BME280;22545;48.892;9.138;2022-08-11T13:27:49;98282.56;;;27.77;28.16
36538;BME280;22545;48.892;9.138;2022-08-11T13:30:15;98289.09;;;27.56;28.17
36538;BME280;22545;48.892;9.138;2022-08-11T13:32:59;98277.09;;;27.62;28.11
36538;BME280;22545;48.892;9.138;2022-08-11T13:35:26;98279.72;;;27.70;28.21
36538;BME280;22545;48.892;9.138;2022-08-11T13:37:52;98281.22;;;27.64;27.75
36538;BME280;22545;48.892;9.138;2022-08-11T13:40:19;98287.97;;;27.59;28.13
36538;BME280;22545;48.892;9.138;2022-08-11T13:42:45;98281.75;;;27.33;28.03
36538;BME280;22545;48.892;9.138;2022-08-11T13:45:11;98274.91;;;27.57;27.81
36538;BME280;22545;48.892;9.138;2022-08-11T13:47:36;98273.56;;;27.53;27.48
36538;BME280;22545;48.892;9.138;2022-08-11T13:50:03;98278.59;;;27.72;27.76
36538;BME280;22545;48.892;9.138;2022-08-11T13:52:29;98271.66;;;27.71;27.88
36538;BME280;22545;48.892;9.138;2022-08-11T13:54:54;98259.59;;;27.69;27.59
36538;BME280;22545;48.892;9.138;2022-08-11T13:57:20;98265.50;;;27.54;27.57
36538;BME280;22545;48.892;9.138;2022-08-11T13:59:50;98270.44;;;27.49;27.40
36538;BME280;22545;48.892;9.138;2022-08-11T14:02:18;98250.00;;;27.60;27.40
36538;BME280;22545;48.892;9.138;2022-08-11T14:04:47;98258.94;;;27.75;27.69
36538;BME280;22545;48.892;9.138;2022-08-11T14:07:16;98250.81;;;27.68;27.92
36538;BME280;22545;48.892;9.138;2022-08-11T14:09:43;98249.19;;;27.76;27.71
36538;BME280;22545;48.892;9.138;2022-08-11T14:12:14;98244.41;;;27.63;27.70
36538;BME280;22545;48.892;9.138;2022-08-11T14:15:21;98250.19;;;27.75;27.67
36538;BME280;22545;48.892;9.138;2022-08-11T14:17:46;98238.97;;;27.72;27.74
36538;BME280;22545;48.892;9.138;2022-08-11T14:20:14;98235.66;;;27.70;27.54
36538;BME280;22545;48.892;9.138;2022-08-11T14:22:40;98242.78;;;27.78;27.38
36538;BME280;22545;48.892;9.138;2022-08-11T14:25:07;98233.09;;;28.12;27.13
36538;BME280;22545;48.892;9.138;2022-08-11T14:27:32;98229.91;;;27.92;26.82
36538;BME280;22545;48.892;9.138;2022-08-11T14:29:58;98236.50;;;27.87;26.94
36538;BME280;22545;48.892;9.138;2022-08-11T14:32:23;98238.13;;;27.80;27.61
36538;BME280;22545;48.892;9.138;2022-08-11T14:34:49;98223.09;;;27.72;28.04
36538;BME280;22545;48.892;9.138;2022-08-11T14:37:19;98236.19;;;27.90;27.43
36538;BME280;22545;48.892;9.138;2022-08-11T14:42:14;98229.19;;;27.65;27.01
36538;BME280;22545;48.892;9.138;2022-08-11T14:45:01;98224.50;;;28.01;27.09
36538;BME280;22545;48.892;9.138;2022-08-11T14:47:48;98210.41;;;27.93;27.03
36538;BME280;22545;48.892;9.138;2022-08-11T14:50:16;98213.03;;;27.93;27.64
36538;BME280;22545;48.892;9.138;2022-08-11T14:55:14;98206.81;;;28.02;26.84
36538;BME280;22545;48.892;9.138;2022-08-11T14:57:59;98208.97;;;28.23;26.95
36538;BME280;22545;48.892;9.138;2022-08-11T15:00:25;98208.66;;;28.10;26.87
36538;BME280;22545;48.892;9.138;2022-08-11T15:02:53;98207.09;;;27.90;26.63
36538;BME280;22545;48.892;9.138;2022-08-11T15:05:34;98198.91;;;28.02;27.27
36538;BME280;22545;48.892;9.138;2022-08-11T15:08:00;98200.03;;;28.16;26.80
36538;BME280;22545;48.892;9.138;2022-08-11T15:10:26;98198.56;;;28.21;27.25
36538;BME280;22545;48.892;9.138;2022-08-11T15:12:51;98188.00;;;28.05;26.97
36538;BME280;22545;48.892;9.138;2022-08-11T15:15:17;98189.78;;;28.04;27.25
36538;BME280;22545;48.892;9.138;2022-08-11T15:18:03;98192.94;;;28.08;27.34
36538;BME280;22545;48.892;9.138;2022-08-11T15:20:29;98190.28;;;28.16;26.89
36538;BME280;22545;48.892;9.138;2022-08-11T15:23:13;98188.63;;;27.82;26.84
36538;BME280;22545;48.892;9.138;2022-08-11T15:26:08;98182.81;;;27.79;27.71
36538;BME280;22545;48.892;9.138;2022-08-11T15:28:36;98175.91;;;27.78;27.54
36538;BME280;22545;48.892;9.138;2022-08-11T15:31:20;98098.56;;;27.43;27.17
36538;BME280;22545;48.892;9.138;2022-08-11T15:34:07;98174.72;;;27.80;27.35
36538;BME280;22545;48.892;9.138;2022-08-11T15:36:54;98182.81;;;27.95;26.78
36538;BME280;22545;48.892;9.138;2022-08-11T15:39:50;98172.78;;;27.99;27.05
36538;BME280;22545;48.892;9.138;2022-08-11T15:42:37;98172.56;;;27.92;26.95
36538;BME280;22545;48.892;9.138;2022-08-11T15:45:23;98169.63;;;28.12;26.56
36538;BME280;22545;48.892;9.138;2022-08-11T15:48:08;98172.25;;;27.95;26.03
36538;BME280;22545;48.892;9.138;2022-08-11T15:50:37;98164.69;;;28.00;26.50
36538;BME280;22545;48.892;9.138;2022-08-11T15:53:10;98168.97;;;28.10;26.13
36538;BME280;22545;48.892;9.138;2022-08-11T15:55:36;98165.03;;;27.97;26.32
36538;BME280;22545;48.892;9.138;2022-08-11T15:58:03;98163.50;;;27.95;26.68
36538;BME280;22545;48.892;9.138;2022-08-11T16:00:49;98156.22;;;27.80;27.24
36538;BME280;22545;48.892;9.138;2022-08-11T16:03:41;98167.63;;;27.81;27.02
36538;BME280;22545;48.892;9.138;2022-08-11T16:06:27;98159.19;;;27.69;27.96
36538;BME280;22545;48.892;9.138;2022-08-11T16:08:53;98165.97;;;27.88;26.56
36538;BME280;22545;48.892;9.138;2022-08-11T16:11:20;98156.22;;;27.80;26.77
36538;BME280;22545;48.892;9.138;2022-08-11T16:13:46;98161.84;;;27.77;27.39
36538;BME280;22545;48.892;9.138;2022-08-11T16:16:31;98165.00;;;27.81;26.86
36538;BME280;22545;48.892;9.138;2022-08-11T16:18:56;98161.69;;;27.87;26.81
36538;BME280;22545;48.892;9.138;2022-08-11T16:21:23;98162.16;;;27.74;27.22
36538;BME280;22545;48.892;9.138;2022-08-11T16:23:49;98156.22;;;27.72;26.78
36538;BME280;22545;48.892;9.138;2022-08-11T16:26:17;98151.94;;;27.63;27.04
36538;BME280;22545;48.892;9.138;2022-08-11T16:28:43;98154.91;;;27.60;26.80
36538;BME280;22545;48.892;9.138;2022-08-11T16:31:10;98149.94;;;27.65;26.86
36538;BME280;22545;48.892;9.138;2022-08-11T16:33:40;98139.69;;;27.70;27.01
36538;BME280;22545;48.892;9.138;2022-08-11T16:36:06;98147.13;;;27.58;27.16